Flugplatz Braunschweig Wolfsburg

Bericht für EDVE

vom 15.07. um 18:20 UTC

Wind 4 kt aus 80°

Sichtweite 10 km oder mehr

gute Sicht, keine Wolken < 5000 ft, keine CB, keine Wettererscheinungen (CAVOK)

Temperatur 24.0°C

Taupunkt 8.0°C

Luftfeuchtigkeit 36%

Luftdruck 1015 hPa

EDVE 151820Z 08004KT 050V110 CAVOK 24/08 Q1015

Prognose für EDVE

vom 15.07. um 17:00 UTC

Zwischen 18:00 und 21:00 UTC übergehend zu

variable Windrichtung mit 3 kt

Sichtweite 10 km oder mehr

keine signifikanten Wettererscheinungen

keine Wolken


Zwischen 18:00 UTC und 21:00 UTC

Wind 6 kt aus 30°

Sichtweite 10 km oder mehr

keine signifikanten Wettererscheinungen

keine Wolken

TAF EDVE 151700Z 1518/1521 03006KT CAVOK BECMG 1518/1521 VRB03KT
Impressum